Terminal Aerodrome Forecast
Issued by NWS Jackson, KY

Home | Current Version | Previous Version | Text Only | Print | Product List | Glossary On
Versions: 1 2 3 4 5 6 7 8 9 10 11 12 13 14
000
FTUS43 KJKL 270535
TAFLOZ
TAF
KLOZ 270535Z 2706/2806 VRB05KT 6SM -SHRA OVC040
     FM270800 00000KT 4SM BR VCSH OVC030
     FM271400 VRB05KT P6SM BKN040
     FM271700 27009G18KT P6SM BKN040=

USA.gov is the U.S. government's official web portal to all federal, state and local government web resources and services.